Time;durP1;ratioP1;P1;durP2;ratioP2;P2;SDS_P1;SDS_P2;PMS_P1;PMS_P2;Temp;Humidity;BMP_temperature;BMP_pressure;BME280_temperature;BME280_humidity;BME280_pressure;Samples;Min_cycle;Max_cycle;Signal;HPM_P1;HPM_P2
2023/02/13 00:01:22;;;;;;;24.45;20.23;;;;;;;;;;5034557;28;20382;-84
2023/02/13 00:03:48;;;;;;;24.48;19.85;;;;;;;;;;5052161;28;20394;-84
2023/02/13 00:06:14;;;;;;;22.45;19.40;;;;;;;;;;5051908;28;20388;-84
2023/02/13 00:08:40;;;;;;;23.42;19.88;;;;;;;;;;5051492;28;20867;-84
2023/02/13 00:11:06;;;;;;;24.17;20.60;;;;;;;;;;5034387;28;20480;-84
2023/02/13 00:13:34;;;;;;;26.70;21.45;;;;;;;;;;5034308;28;20754;-84
2023/02/13 00:16:00;;;;;;;28.70;21.40;;;;;;;;;;5051937;28;20796;-84
2023/02/13 00:18:27;;;;;;;25.13;20.42;;;;;;;;;;5052219;28;20379;-84
2023/02/13 00:20:56;;;;;;;24.67;19.95;;;;;;;;;;5052300;28;20422;-83
2023/02/13 00:23:22;;;;;;;23.75;19.13;;;;;;;;;;5051832;28;20886;-83
2023/02/13 00:25:48;;;;;;;26.70;20.80;;;;;;;;;;5051712;28;20389;-84
2023/02/13 00:28:14;;;;;;;23.90;20.00;;;;;;;;;;5052096;28;20444;-83
2023/02/13 00:30:40;;;;;;;25.23;20.23;;;;;;;;;;5034162;28;20405;-83
2023/02/13 00:33:06;;;;;;;29.02;22.73;;;;;;;;;;5052061;28;20380;-83
2023/02/13 00:35:32;;;;;;;28.42;22.00;;;;;;;;;;5033845;28;20567;-83
2023/02/13 00:37:58;;;;;;;25.80;20.98;;;;;;;;;;5051970;28;20390;-84
2023/02/13 00:40:24;;;;;;;29.48;22.85;;;;;;;;;;5051756;28;20376;-84
2023/02/13 00:42:50;;;;;;;26.13;21.90;;;;;;;;;;5033537;28;20469;-83
2023/02/13 00:45:16;;;;;;;29.15;22.48;;;;;;;;;;5033411;28;20398;-83
2023/02/13 00:47:42;;;;;;;26.92;21.15;;;;;;;;;;5051752;28;20863;-83
2023/02/13 00:50:08;;;;;;;26.05;21.15;;;;;;;;;;5051752;28;20503;-86
2023/02/13 00:52:34;;;;;;;27.15;21.08;;;;;;;;;;5051594;28;20468;-83
2023/02/13 00:55:00;;;;;;;27.65;21.40;;;;;;;;;;5051588;28;20878;-83
2023/02/13 00:57:26;;;;;;;28.52;21.80;;;;;;;;;;5034526;28;20394;-83
2023/02/13 00:59:52;;;;;;;26.38;21.17;;;;;;;;;;5062432;28;20400;-83
2023/02/13 01:02:18;;;;;;;24.88;19.90;;;;;;;;;;5061572;28;20920;-84
2023/02/13 01:04:44;;;;;;;25.57;20.87;;;;;;;;;;5066186;28;20419;-81
2023/02/13 01:07:10;;;;;;;25.40;20.52;;;;;;;;;;5067077;28;20387;-82
2023/02/13 01:09:36;;;;;;;24.10;19.63;;;;;;;;;;5062021;28;20392;-83
2023/02/13 01:12:02;;;;;;;24.35;19.90;;;;;;;;;;5055499;28;20443;-84
2023/02/13 01:14:28;;;;;;;24.80;20.42;;;;;;;;;;5053154;28;20393;-85
2023/02/13 01:16:54;;;;;;;25.65;20.70;;;;;;;;;;5050604;28;20381;-84
2023/02/13 01:19:20;;;;;;;26.70;19.92;;;;;;;;;;5051234;28;20863;-84
2023/02/13 01:21:46;;;;;;;29.42;21.80;;;;;;;;;;5048619;28;20504;-84
2023/02/13 01:24:12;;;;;;;26.58;20.95;;;;;;;;;;5050974;28;20829;-83
2023/02/13 01:26:38;;;;;;;26.17;21.63;;;;;;;;;;5051052;28;20495;-83
2023/02/13 01:29:04;;;;;;;25.35;20.25;;;;;;;;;;5051311;28;20457;-84
2023/02/13 01:31:30;;;;;;;27.30;20.63;;;;;;;;;;5051526;28;20385;-84
2023/02/13 01:33:57;;;;;;;26.08;20.95;;;;;;;;;;5050649;28;20405;-84
2023/02/13 01:36:23;;;;;;;25.27;20.52;;;;;;;;;;5051054;28;20400;-84
2023/02/13 01:38:52;;;;;;;27.55;21.58;;;;;;;;;;5051009;28;20384;-84
2023/02/13 01:41:18;;;;;;;26.23;21.50;;;;;;;;;;5051261;28;20403;-84
2023/02/13 01:43:50;;;;;;;27.38;21.45;;;;;;;;;;5050951;28;20496;-83
2023/02/13 01:46:18;;;;;;;26.17;21.55;;;;;;;;;;5051111;28;20393;-83
2023/02/13 01:48:45;;;;;;;25.90;21.00;;;;;;;;;;5051141;28;20381;-83
2023/02/13 01:51:14;;;;;;;25.30;20.83;;;;;;;;;;5051250;28;20373;-85
2023/02/13 01:53:49;;;;;;;27.73;20.53;;;;;;;;;;5050657;28;20770;-84
2023/02/13 01:56:23;;;;;;;28.33;22.13;;;;;;;;;;5050606;28;20434;-83
2023/02/13 01:58:52;;;;;;;25.73;20.95;;;;;;;;;;5050991;28;20391;-84
2023/02/13 02:01:19;;;;;;;27.52;21.73;;;;;;;;;;5050994;28;20448;-84
2023/02/13 02:03:49;;;;;;;27.23;21.15;;;;;;;;;;5051000;28;20393;-84
2023/02/13 02:06:24;;;;;;;28.43;21.73;;;;;;;;;;5050970;28;20407;-84
2023/02/13 02:08:51;;;;;;;32.83;24.33;;;;;;;;;;5042678;28;20483;-83
2023/02/13 02:11:22;;;;;;;28.38;21.90;;;;;;;;;;5050701;28;20385;-84
2023/02/13 02:13:48;;;;;;;32.10;22.98;;;;;;;;;;5050045;28;20470;-83
2023/02/13 02:16:14;;;;;;;30.48;22.65;;;;;;;;;;5050813;28;20378;-83
2023/02/13 02:18:43;;;;;;;28.80;22.77;;;;;;;;;;5050811;28;20774;-83
2023/02/13 02:21:09;;;;;;;32.05;23.15;;;;;;;;;;5049787;28;20466;-83
2023/02/13 02:23:40;;;;;;;29.83;22.27;;;;;;;;;;5046486;28;20373;-83
2023/02/13 02:26:10;;;;;;;31.90;22.67;;;;;;;;;;5049111;28;20440;-83
2023/02/13 02:28:39;;;;;;;29.60;22.17;;;;;;;;;;5029913;28;20830;-83
2023/02/13 02:31:23;;;;;;;30.95;23.10;;;;;;;;;;5049257;28;20416;-84
2023/02/13 02:33:52;;;;;;;27.88;21.52;;;;;;;;;;5049258;28;20440;-83
2023/02/13 02:36:27;;;;;;;28.25;22.02;;;;;;;;;;5038080;28;20486;-83
2023/02/13 02:39:12;;;;;;;29.13;22.48;;;;;;;;;;5034669;28;20428;-85
2023/02/13 02:41:41;;;;;;;37.22;25.23;;;;;;;;;;5035833;28;20446;-83
2023/02/13 02:44:27;;;;;;;29.00;22.60;;;;;;;;;;5037076;28;20420;-83
2023/02/13 02:49:58;;;;;;;31.77;22.88;;;;;;;;;;5034158;28;20622;-85
2023/02/13 02:52:44;;;;;;;29.80;22.25;;;;;;;;;;5037056;28;20389;-85
2023/02/13 02:55:20;;;;;;;32.05;23.70;;;;;;;;;;5003831;28;20519;-85
2023/02/13 03:06:14;;;;;;;31.23;23.20;;;;;;;;;;5035263;28;20378;-84
2023/02/13 03:14:13;;;;;;;38.75;25.63;;;;;;;;;;5035729;28;20414;-85
2023/02/13 03:22:29;;;;;;;37.33;24.48;;;;;;;;;;5032774;28;20471;-84
2023/02/13 03:25:04;;;;;;;34.60;24.27;;;;;;;;;;5038163;28;20930;-84
2023/02/13 03:30:36;;;;;;;40.53;27.17;;;;;;;;;;5049319;28;20508;-85
2023/02/13 03:33:13;;;;;;;57.67;33.37;;;;;;;;;;5052652;28;20382;-84
2023/02/13 03:38:27;;;;;;;69.07;38.08;;;;;;;;;;5052655;28;20383;-85
2023/02/13 03:41:19;;;;;;;39.35;26.90;;;;;;;;;;5052950;28;20377;-84
2023/02/13 03:44:00;;;;;;;46.70;29.20;;;;;;;;;;5051131;28;25091;-86
2023/02/13 03:46:28;;;;;;;90.13;44.25;;;;;;;;;;5052867;28;20400;-85
2023/02/13 03:51:43;;;;;;;83.43;42.22;;;;;;;;;;5052808;28;25185;-84
2023/02/13 03:54:20;;;;;;;55.75;32.40;;;;;;;;;;5052594;28;20837;-85
2023/02/13 03:59:33;;;;;;;32.50;23.58;;;;;;;;;;5052638;28;20395;-84
2023/02/13 04:02:03;;;;;;;53.00;31.08;;;;;;;;;;5052618;28;20424;-84
2023/02/13 04:04:40;;;;;;;54.70;29.90;;;;;;;;;;5052022;28;20373;-84
2023/02/13 04:07:08;;;;;;;82.97;38.90;;;;;;;;;;5052455;28;20626;-84
2023/02/13 04:09:36;;;;;;;64.68;34.47;;;;;;;;;;5052319;28;20379;-85
2023/02/13 04:12:06;;;;;;;55.10;30.08;;;;;;;;;;5051919;28;20428;-85
2023/02/13 04:14:38;;;;;;;53.55;29.45;;;;;;;;;;5051933;28;20470;-84
2023/02/13 04:17:17;;;;;;;94.97;43.03;;;;;;;;;;5052197;28;20409;-84
2023/02/13 04:19:43;;;;;;;45.88;27.40;;;;;;;;;;5052026;28;25107;-85
2023/02/13 04:22:11;;;;;;;36.40;24.93;;;;;;;;;;5051830;28;20381;-85
2023/02/13 04:24:37;;;;;;;67.90;34.80;;;;;;;;;;5052359;28;20381;-85
2023/02/13 04:27:03;;;;;;;46.40;27.58;;;;;;;;;;5053194;28;20924;-84
2023/02/13 04:29:29;;;;;;;69.57;37.43;;;;;;;;;;5050606;28;20394;-84
2023/02/13 04:31:55;;;;;;;33.13;24.15;;;;;;;;;;5049630;28;20394;-85
2023/02/13 04:34:21;;;;;;;32.78;24.25;;;;;;;;;;5053063;28;20401;-85
2023/02/13 04:36:47;;;;;;;37.70;26.35;;;;;;;;;;5063809;28;20398;-85
2023/02/13 04:39:13;;;;;;;31.10;23.25;;;;;;;;;;5060048;28;20408;-84
2023/02/13 04:41:39;;;;;;;32.30;24.23;;;;;;;;;;5053616;28;20378;-84
2023/02/13 04:44:05;;;;;;;159.45;61.75;;;;;;;;;;5051851;28;20511;-86
2023/02/13 04:46:31;;;;;;;37.60;25.15;;;;;;;;;;5051009;28;20465;-82
2023/02/13 04:48:57;;;;;;;32.83;23.70;;;;;;;;;;5050911;28;20764;-83
2023/02/13 04:51:23;;;;;;;42.13;27.00;;;;;;;;;;5051095;28;20441;-84
2023/02/13 04:53:49;;;;;;;30.20;23.30;;;;;;;;;;5050654;28;20377;-85
2023/02/13 04:56:15;;;;;;;30.38;23.33;;;;;;;;;;5055539;28;20411;-84
2023/02/13 04:58:41;;;;;;;30.00;23.17;;;;;;;;;;5051791;28;20384;-84
2023/02/13 05:01:14;;;;;;;32.15;24.38;;;;;;;;;;5051981;28;20463;-84
2023/02/13 05:03:40;;;;;;;39.03;27.20;;;;;;;;;;5044870;28;20486;-85
2023/02/13 05:06:06;;;;;;;32.95;24.95;;;;;;;;;;5041942;28;20412;-84
2023/02/13 05:08:32;;;;;;;32.97;23.97;;;;;;;;;;5046103;28;20505;-85
2023/02/13 05:10:58;;;;;;;34.58;25.05;;;;;;;;;;5031140;28;20929;-85
2023/02/13 05:13:24;;;;;;;31.07;23.70;;;;;;;;;;5049579;28;20464;-84
2023/02/13 05:15:51;;;;;;;34.75;24.92;;;;;;;;;;5048815;28;20412;-85
2023/02/13 05:18:17;;;;;;;31.83;24.07;;;;;;;;;;5031454;28;20386;-84
2023/02/13 05:20:43;;;;;;;29.60;23.60;;;;;;;;;;5031418;28;20394;-84
2023/02/13 05:23:22;;;;;;;30.67;23.15;;;;;;;;;;5049473;28;20451;-84
2023/02/13 05:25:48;;;;;;;28.60;22.13;;;;;;;;;;5051121;28;20423;-85
2023/02/13 05:30:59;;;;;;;29.23;22.13;;;;;;;;;;5051037;28;20383;-84
2023/02/13 05:33:25;;;;;;;27.88;21.88;;;;;;;;;;5046394;28;20379;-85
2023/02/13 05:35:51;;;;;;;27.73;21.25;;;;;;;;;;5050698;28;20420;-84
2023/02/13 05:38:17;;;;;;;26.10;20.40;;;;;;;;;;5031751;28;20473;-84
2023/02/13 05:40:43;;;;;;;26.67;21.30;;;;;;;;;;5050543;28;20385;-85
2023/02/13 05:43:09;;;;;;;27.77;21.73;;;;;;;;;;5050689;28;20865;-85
2023/02/13 05:45:35;;;;;;;29.48;22.10;;;;;;;;;;5050897;28;20472;-84
2023/02/13 05:48:01;;;;;;;26.05;20.10;;;;;;;;;;5033161;28;20393;-84
2023/02/13 05:50:27;;;;;;;27.87;21.87;;;;;;;;;;5043726;28;20387;-85
2023/02/13 05:52:53;;;;;;;28.13;21.30;;;;;;;;;;5037696;28;20777;-85
2023/02/13 05:55:19;;;;;;;26.67;20.20;;;;;;;;;;5051091;28;20412;-85
2023/02/13 05:57:45;;;;;;;25.10;20.02;;;;;;;;;;5033589;28;20467;-85
2023/02/13 06:00:11;;;;;;;24.20;19.55;;;;;;;;;;5050875;28;20385;-84
2023/02/13 06:02:37;;;;;;;22.13;19.27;;;;;;;;;;5047663;28;20386;-84
2023/02/13 06:05:03;;;;;;;24.25;19.42;;;;;;;;;;5050892;28;20404;-84
2023/02/13 06:07:29;;;;;;;21.88;18.45;;;;;;;;;;5043507;28;20387;-84
2023/02/13 06:09:58;;;;;;;23.65;18.75;;;;;;;;;;5054601;28;20387;-84
2023/02/13 06:12:24;;;;;;;22.27;18.90;;;;;;;;;;5053092;28;20480;-85
2023/02/13 06:14:50;;;;;;;21.95;18.58;;;;;;;;;;5054521;28;20405;-84
2023/02/13 06:17:16;;;;;;;22.60;18.58;;;;;;;;;;5054743;28;20400;-84
2023/02/13 06:19:42;;;;;;;25.67;20.50;;;;;;;;;;5053837;28;20389;-83
2023/02/13 06:22:08;;;;;;;23.40;18.90;;;;;;;;;;5052436;28;20385;-83
2023/02/13 06:24:34;;;;;;;23.73;19.55;;;;;;;;;;5052794;28;20385;-83
2023/02/13 06:27:00;;;;;;;22.15;18.63;;;;;;;;;;5053694;28;20413;-83
2023/02/13 06:29:26;;;;;;;24.00;20.00;;;;;;;;;;5053694;28;20986;-83
2023/02/13 06:31:52;;;;;;;22.77;18.95;;;;;;;;;;5035895;28;20390;-84
2023/02/13 06:34:18;;;;;;;22.88;19.40;;;;;;;;;;5052470;28;20401;-83
2023/02/13 06:36:44;;;;;;;24.38;19.98;;;;;;;;;;5052566;28;20758;-83
2023/02/13 06:39:10;;;;;;;25.15;20.98;;;;;;;;;;5043520;28;20375;-83
2023/02/13 06:41:36;;;;;;;22.75;19.05;;;;;;;;;;5045472;28;20507;-83
2023/02/13 06:44:02;;;;;;;22.50;18.70;;;;;;;;;;5019887;28;20438;-84
2023/02/13 06:46:28;;;;;;;21.58;19.00;;;;;;;;;;5043937;28;20862;-84
2023/02/13 06:48:54;;;;;;;21.13;18.30;;;;;;;;;;5059500;28;20378;-84
2023/02/13 06:51:20;;;;;;;22.38;18.77;;;;;;;;;;5061678;28;20384;-84
2023/02/13 06:53:46;;;;;;;22.23;18.45;;;;;;;;;;5037355;28;20497;-84
2023/02/13 06:56:12;;;;;;;24.25;19.55;;;;;;;;;;5054001;28;20930;-83
2023/02/13 06:58:38;;;;;;;23.40;19.30;;;;;;;;;;5054163;28;20408;-83
2023/02/13 07:01:05;;;;;;;23.40;19.27;;;;;;;;;;5054126;28;20871;-84
2023/02/13 07:03:31;;;;;;;24.42;19.63;;;;;;;;;;5053834;28;20392;-84
2023/02/13 07:05:57;;;;;;;24.67;20.17;;;;;;;;;;5051711;28;20387;-84
2023/02/13 07:08:23;;;;;;;27.13;21.23;;;;;;;;;;5036105;28;20484;-81
2023/02/13 07:10:49;;;;;;;26.00;19.65;;;;;;;;;;5035847;28;20385;-81
2023/02/13 07:13:15;;;;;;;25.38;20.83;;;;;;;;;;5053735;28;20408;-81
2023/02/13 07:15:41;;;;;;;26.77;20.95;;;;;;;;;;5053149;28;20412;-80
2023/02/13 07:18:07;;;;;;;27.52;21.40;;;;;;;;;;5051761;28;20385;-80
2023/02/13 07:20:33;;;;;;;26.50;21.10;;;;;;;;;;5046303;28;20918;-80
2023/02/13 07:23:00;;;;;;;27.60;21.77;;;;;;;;;;5032314;28;20475;-81
2023/02/13 07:25:27;;;;;;;29.40;22.45;;;;;;;;;;5052470;28;20795;-80
2023/02/13 07:27:53;;;;;;;29.33;22.10;;;;;;;;;;5053014;28;20443;-79
2023/02/13 07:30:19;;;;;;;28.73;21.55;;;;;;;;;;5053020;28;20862;-81
2023/02/13 07:32:45;;;;;;;29.55;22.25;;;;;;;;;;5052766;28;20477;-80
2023/02/13 07:35:10;;;;;;;31.07;22.30;;;;;;;;;;5035038;28;20892;-81
2023/02/13 07:37:36;;;;;;;29.88;22.00;;;;;;;;;;5030465;28;20410;-82
2023/02/13 07:40:04;;;;;;;31.52;22.27;;;;;;;;;;5035556;28;20381;-82
2023/02/13 07:42:32;;;;;;;31.88;22.80;;;;;;;;;;5052079;28;20869;-82
2023/02/13 07:44:58;;;;;;;31.85;22.98;;;;;;;;;;5053408;28;20830;-81
2023/02/13 07:47:24;;;;;;;30.65;22.35;;;;;;;;;;5052461;28;20739;-82
2023/02/13 07:49:50;;;;;;;31.45;22.73;;;;;;;;;;5052418;28;20443;-81
2023/02/13 07:52:16;;;;;;;28.88;22.05;;;;;;;;;;5052904;28;20476;-82
2023/02/13 07:54:46;;;;;;;32.67;23.67;;;;;;;;;;5052890;28;20405;-82
2023/02/13 07:57:12;;;;;;;31.52;23.08;;;;;;;;;;5052974;28;20405;-81
2023/02/13 07:59:38;;;;;;;32.42;23.45;;;;;;;;;;5052906;28;20376;-83
2023/02/13 08:02:04;;;;;;;33.28;23.63;;;;;;;;;;5053426;28;20724;-83
2023/02/13 08:04:30;;;;;;;31.83;22.73;;;;;;;;;;5052585;28;20381;-83
2023/02/13 08:06:56;;;;;;;31.05;22.60;;;;;;;;;;5054283;28;20602;-82
2023/02/13 08:12:10;;;;;;;32.85;22.95;;;;;;;;;;5054393;28;20550;-83
2023/02/13 08:14:36;;;;;;;32.28;23.38;;;;;;;;;;5053660;28;20434;-83
2023/02/13 08:17:03;;;;;;;38.22;24.92;;;;;;;;;;5053551;28;20434;-83
2023/02/13 08:19:29;;;;;;;36.00;25.05;;;;;;;;;;5052843;28;20813;-83
2023/02/13 08:21:55;;;;;;;40.33;25.45;;;;;;;;;;5050497;28;20391;-83
2023/02/13 08:24:21;;;;;;;36.38;23.85;;;;;;;;;;5051195;28;20747;-84
2023/02/13 08:26:47;;;;;;;35.30;24.08;;;;;;;;;;5054393;28;20870;-89
2023/02/13 08:29:13;;;;;;;39.92;25.58;;;;;;;;;;5054572;28;20936;-88
2023/02/13 08:31:39;;;;;;;40.95;26.23;;;;;;;;;;5052896;28;20825;-88
2023/02/13 08:34:05;;;;;;;38.17;25.17;;;;;;;;;;5052274;28;20400;-88
2023/02/13 08:36:31;;;;;;;42.58;27.70;;;;;;;;;;5052306;28;20417;-86
2023/02/13 08:38:57;;;;;;;42.95;27.95;;;;;;;;;;5052763;28;20755;-87
2023/02/13 08:41:23;;;;;;;39.92;26.15;;;;;;;;;;5034369;28;20385;-88
2023/02/13 08:43:50;;;;;;;38.00;25.10;;;;;;;;;;5044241;28;20880;-87
2023/02/13 08:46:16;;;;;;;39.78;26.13;;;;;;;;;;5048908;28;20387;-87
2023/02/13 08:48:43;;;;;;;41.67;26.97;;;;;;;;;;5038974;28;20476;-86
2023/02/13 08:51:10;;;;;;;39.42;25.77;;;;;;;;;;5035457;28;20873;-88
2023/02/13 08:53:36;;;;;;;33.95;24.08;;;;;;;;;;5037259;28;20569;-89
2023/02/13 08:56:03;;;;;;;36.80;23.92;;;;;;;;;;5052078;28;20405;-90
2023/02/13 08:58:29;;;;;;;37.85;24.13;;;;;;;;;;5053922;28;20910;-88
2023/02/13 09:00:55;;;;;;;33.63;24.00;;;;;;;;;;5053718;28;20896;-86
2023/02/13 09:03:21;;;;;;;34.15;23.33;;;;;;;;;;5052109;28;20593;-88
2023/02/13 09:05:47;;;;;;;35.92;24.27;;;;;;;;;;5051014;28;20391;-86
2023/02/13 09:08:13;;;;;;;35.60;24.37;;;;;;;;;;5051783;28;20858;-88
2023/02/13 09:10:40;;;;;;;38.05;25.20;;;;;;;;;;5053321;28;20388;-87
2023/02/13 09:13:06;;;;;;;41.63;25.90;;;;;;;;;;5051628;28;20380;-86
2023/02/13 09:15:33;;;;;;;38.13;25.20;;;;;;;;;;5051512;28;20410;-86
2023/02/13 09:17:59;;;;;;;36.05;24.90;;;;;;;;;;5050572;28;20380;-84
2023/02/13 09:20:25;;;;;;;35.47;24.73;;;;;;;;;;5051562;28;20789;-84
2023/02/13 09:22:51;;;;;;;38.00;25.15;;;;;;;;;;5051402;28;20469;-84
2023/02/13 09:25:19;;;;;;;39.63;25.63;;;;;;;;;;5051223;28;20829;-84
2023/02/13 09:27:45;;;;;;;34.92;24.67;;;;;;;;;;5051421;28;20411;-84
2023/02/13 09:30:21;;;;;;;39.00;25.58;;;;;;;;;;5052797;28;20395;-84
2023/02/13 09:32:47;;;;;;;34.33;24.27;;;;;;;;;;5050956;28;20412;-84
2023/02/13 09:35:13;;;;;;;36.03;24.67;;;;;;;;;;5035738;28;21087;-84
2023/02/13 09:37:40;;;;;;;37.67;25.27;;;;;;;;;;5034221;28;20407;-84
2023/02/13 09:40:07;;;;;;;47.17;27.95;;;;;;;;;;5050905;28;20407;-84
2023/02/13 09:42:35;;;;;;;47.13;28.38;;;;;;;;;;5034778;28;20381;-84
2023/02/13 09:45:04;;;;;;;41.63;27.17;;;;;;;;;;5051901;28;20402;-84
2023/02/13 09:47:39;;;;;;;39.85;25.98;;;;;;;;;;5039687;28;20459;-84
2023/02/13 09:50:23;;;;;;;40.47;26.60;;;;;;;;;;5052931;28;20395;-84
2023/02/13 09:52:51;;;;;;;46.05;28.70;;;;;;;;;;5053610;28;20493;-84
2023/02/13 09:55:22;;;;;;;41.80;27.27;;;;;;;;;;5053171;28;20462;-84
2023/02/13 09:57:52;;;;;;;41.03;27.30;;;;;;;;;;5053329;28;20874;-84
2023/02/13 10:00:25;;;;;;;45.53;29.75;;;;;;;;;;5053915;28;20377;-84
2023/02/13 10:02:51;;;;;;;42.03;27.17;;;;;;;;;;5053670;28;25127;-86
2023/02/13 10:05:35;;;;;;;44.33;28.13;;;;;;;;;;5054612;28;20499;-84
2023/02/13 10:08:09;;;;;;;42.83;28.00;;;;;;;;;;5054451;28;25113;-85
2023/02/13 10:10:35;;;;;;;44.13;28.80;;;;;;;;;;5054333;28;20438;-85
2023/02/13 10:13:04;;;;;;;46.60;29.40;;;;;;;;;;5036860;28;20409;-85
2023/02/13 10:15:46;;;;;;;46.45;29.85;;;;;;;;;;5054396;28;20897;-84
2023/02/13 10:18:15;;;;;;;43.75;28.80;;;;;;;;;;5035925;28;25196;-85
2023/02/13 10:20:50;;;;;;;48.40;29.90;;;;;;;;;;5054291;28;20431;-83
2023/02/13 10:23:26;;;;;;;43.83;30.10;;;;;;;;;;5053896;28;20379;-84
2023/02/13 10:25:52;;;;;;;45.60;30.02;;;;;;;;;;5054412;28;20383;-83
2023/02/13 10:28:38;;;;;;;45.17;30.02;;;;;;;;;;5053921;28;20711;-85
2023/02/13 10:31:15;;;;;;;43.42;30.65;;;;;;;;;;5053719;28;20389;-87
2023/02/13 10:33:49;;;;;;;46.05;31.00;;;;;;;;;;5054010;28;20479;-84
2023/02/13 10:36:18;;;;;;;45.80;30.73;;;;;;;;;;5035989;28;20418;-82
2023/02/13 10:38:45;;;;;;;45.90;29.67;;;;;;;;;;5054071;28;20397;-83
2023/02/13 10:41:30;;;;;;;47.50;31.38;;;;;;;;;;5053895;28;20889;-82
2023/02/13 10:44:02;;;;;;;53.85;35.97;;;;;;;;;;5053455;28;25183;-84
2023/02/13 10:46:31;;;;;;;50.58;33.75;;;;;;;;;;5053747;28;20389;-82
2023/02/13 10:49:04;;;;;;;50.60;34.33;;;;;;;;;;5053507;28;20439;-83
2023/02/13 10:51:32;;;;;;;50.35;34.35;;;;;;;;;;5035943;28;20393;-83
2023/02/13 10:54:04;;;;;;;52.15;33.60;;;;;;;;;;5053003;28;20863;-83
2023/02/13 10:56:37;;;;;;;56.33;35.67;;;;;;;;;;5052283;28;20389;-83
2023/02/13 10:59:22;;;;;;;55.85;36.60;;;;;;;;;;5053177;28;20770;-83
2023/02/13 11:01:48;;;;;;;57.47;36.80;;;;;;;;;;5052814;28;20412;-82
2023/02/13 11:04:16;;;;;;;51.15;34.75;;;;;;;;;;5034826;28;20374;-83
2023/02/13 11:06:45;;;;;;;54.03;36.13;;;;;;;;;;5048229;28;20435;-83
2023/02/13 11:09:12;;;;;;;57.55;37.42;;;;;;;;;;5048350;28;20382;-83
2023/02/13 11:11:39;;;;;;;54.15;35.92;;;;;;;;;;5053347;28;20381;-83
2023/02/13 11:14:15;;;;;;;57.13;37.40;;;;;;;;;;5053210;28;20377;-83
2023/02/13 11:16:59;;;;;;;56.03;36.75;;;;;;;;;;5053109;28;25093;-83
2023/02/13 11:19:44;;;;;;;52.28;35.70;;;;;;;;;;5052805;28;20461;-82
2023/02/13 11:22:14;;;;;;;56.03;36.17;;;;;;;;;;5052111;28;25115;-82
2023/02/13 11:24:41;;;;;;;59.83;37.22;;;;;;;;;;5052745;28;20474;-83
2023/02/13 11:27:12;;;;;;;59.28;38.47;;;;;;;;;;5035032;28;20572;-83
2023/02/13 11:29:50;;;;;;;53.83;35.67;;;;;;;;;;5053704;28;20381;-83
2023/02/13 11:32:18;;;;;;;57.90;37.25;;;;;;;;;;5052958;28;20385;-83
2023/02/13 11:34:49;;;;;;;53.78;35.90;;;;;;;;;;5052824;28;20402;-83
2023/02/13 11:37:20;;;;;;;55.35;36.30;;;;;;;;;;5041638;28;20411;-83
2023/02/13 11:39:47;;;;;;;53.05;35.40;;;;;;;;;;5054772;28;20371;-82
2023/02/13 11:42:15;;;;;;;50.47;35.30;;;;;;;;;;5059987;28;20487;-81
2023/02/13 11:44:42;;;;;;;52.97;35.30;;;;;;;;;;5057458;28;20381;-82
2023/02/13 11:47:08;;;;;;;51.50;35.65;;;;;;;;;;5036247;28;20894;-82
2023/02/13 11:49:35;;;;;;;50.05;35.38;;;;;;;;;;5053824;28;20396;-83
2023/02/13 11:52:03;;;;;;;57.40;36.80;;;;;;;;;;5053641;28;20407;-83
2023/02/13 11:54:36;;;;;;;53.53;35.35;;;;;;;;;;5053121;28;20426;-83
2023/02/13 11:57:22;;;;;;;48.83;33.03;;;;;;;;;;5052839;28;20427;-83
2023/02/13 11:59:50;;;;;;;54.60;36.35;;;;;;;;;;5052385;28;25104;-83
2023/02/13 12:02:19;;;;;;;56.78;37.35;;;;;;;;;;5052417;28;20383;-83
2023/02/13 12:04:45;;;;;;;53.42;35.50;;;;;;;;;;5051859;28;20395;-84
2023/02/13 12:07:11;;;;;;;64.78;40.00;;;;;;;;;;5052481;28;20378;-83
2023/02/13 12:09:38;;;;;;;56.67;36.38;;;;;;;;;;5052657;28;20447;-83
2023/02/13 12:12:05;;;;;;;54.00;35.33;;;;;;;;;;5052664;28;20417;-84
2023/02/13 12:14:33;;;;;;;55.05;35.78;;;;;;;;;;5051907;28;20407;-83
2023/02/13 12:17:18;;;;;;;64.22;42.47;;;;;;;;;;5051619;28;20950;-84
2023/02/13 12:19:46;;;;;;;63.28;40.67;;;;;;;;;;5034478;28;20386;-84
2023/02/13 12:22:15;;;;;;;56.95;38.03;;;;;;;;;;5034585;28;20789;-83
2023/02/13 12:24:47;;;;;;;70.13;48.78;;;;;;;;;;5052105;28;20392;-82
2023/02/13 12:27:16;;;;;;;57.78;39.70;;;;;;;;;;5051664;28;20429;-83
2023/02/13 12:29:51;;;;;;;68.87;45.63;;;;;;;;;;5052050;28;20486;-83
2023/02/13 12:32:17;;;;;;;58.30;37.25;;;;;;;;;;5051149;28;20397;-84
2023/02/13 12:34:46;;;;;;;55.13;37.40;;;;;;;;;;5051652;28;20462;-84
2023/02/13 12:37:18;;;;;;;53.47;36.58;;;;;;;;;;5051899;28;20405;-83
2023/02/13 12:39:53;;;;;;;56.05;36.90;;;;;;;;;;5051936;28;20414;-85
2023/02/13 12:42:25;;;;;;;53.83;35.97;;;;;;;;;;5050849;28;25032;-84
2023/02/13 12:44:51;;;;;;;50.35;34.40;;;;;;;;;;5051786;28;20842;-83
2023/02/13 12:47:17;;;;;;;52.63;35.67;;;;;;;;;;5051853;28;20406;-84
2023/02/13 12:49:52;;;;;;;52.97;36.43;;;;;;;;;;5051078;28;20842;-84
2023/02/13 12:52:34;;;;;;;51.30;35.25;;;;;;;;;;5051685;28;20438;-84
2023/02/13 12:55:12;;;;;;;50.35;34.72;;;;;;;;;;5050922;28;20454;-84
2023/02/13 12:57:50;;;;;;;51.80;35.92;;;;;;;;;;5050686;28;25092;-84
2023/02/13 13:00:17;;;;;;;53.67;36.47;;;;;;;;;;5051761;28;20469;-84
2023/02/13 13:02:43;;;;;;;54.95;36.58;;;;;;;;;;5049910;28;20378;-83
2023/02/13 13:05:22;;;;;;;51.20;35.75;;;;;;;;;;5041361;28;20382;-84
2023/02/13 13:07:51;;;;;;;52.00;36.38;;;;;;;;;;5050765;28;20428;-83
2023/02/13 13:10:23;;;;;;;59.35;40.22;;;;;;;;;;5051555;28;20402;-84
2023/02/13 13:13:07;;;;;;;56.55;39.00;;;;;;;;;;5051477;28;20413;-84
2023/02/13 13:15:42;;;;;;;59.83;39.78;;;;;;;;;;5051157;28;25108;-83
2023/02/13 13:18:20;;;;;;;60.65;40.08;;;;;;;;;;5051206;28;20383;-83
2023/02/13 13:20:46;;;;;;;60.67;39.67;;;;;;;;;;5051101;28;25132;-84
2023/02/13 13:23:22;;;;;;;57.10;39.65;;;;;;;;;;5050777;28;20788;-83
2023/02/13 13:25:52;;;;;;;62.70;39.42;;;;;;;;;;5051038;28;20720;-83
2023/02/13 13:28:41;;;;;;;59.45;38.53;;;;;;;;;;5050937;28;20442;-83
2023/02/13 13:31:08;;;;;;;54.75;36.97;;;;;;;;;;5050804;28;20377;-84
2023/02/13 13:33:35;;;;;;;54.65;36.80;;;;;;;;;;5050680;28;20469;-83
2023/02/13 13:36:05;;;;;;;55.60;36.72;;;;;;;;;;5048344;28;20497;-84
2023/02/13 13:38:50;;;;;;;56.45;38.15;;;;;;;;;;5051212;28;20386;-84
2023/02/13 13:41:26;;;;;;;54.67;36.50;;;;;;;;;;5050926;28;25099;-84
2023/02/13 13:44:03;;;;;;;54.92;37.72;;;;;;;;;;5050876;28;20399;-84
2023/02/13 13:46:37;;;;;;;57.42;37.95;;;;;;;;;;5050517;28;20382;-84
2023/02/13 13:49:16;;;;;;;56.58;38.67;;;;;;;;;;5051120;28;20412;-83
2023/02/13 13:51:42;;;;;;;56.50;38.55;;;;;;;;;;5051274;28;25144;-84
2023/02/13 13:54:07;;;;;;;52.45;35.72;;;;;;;;;;5050816;28;20480;-83
2023/02/13 13:56:52;;;;;;;56.45;37.47;;;;;;;;;;5050866;28;20411;-83
2023/02/13 13:59:33;;;;;;;54.95;37.75;;;;;;;;;;5050940;28;20367;-84
2023/02/13 14:02:25;;;;;;;56.20;37.95;;;;;;;;;;5050312;28;20427;-83
2023/02/13 14:05:02;;;;;;;55.20;38.50;;;;;;;;;;5045290;28;20393;-83
2023/02/13 14:07:36;;;;;;;57.35;38.63;;;;;;;;;;5044238;28;20407;-83
2023/02/13 14:10:03;;;;;;;54.90;37.90;;;;;;;;;;5048267;28;20381;-83
2023/02/13 14:12:29;;;;;;;56.63;38.10;;;;;;;;;;5050384;28;20755;-83
2023/02/13 14:14:59;;;;;;;59.40;39.67;;;;;;;;;;5050175;28;20406;-83
2023/02/13 14:17:43;;;;;;;55.60;39.30;;;;;;;;;;5050894;28;20470;-83
2023/02/13 14:20:36;;;;;;;57.70;40.25;;;;;;;;;;5050233;28;20363;-82
2023/02/13 14:23:06;;;;;;;56.92;39.95;;;;;;;;;;5045861;28;20386;-82
2023/02/13 14:25:32;;;;;;;54.83;37.78;;;;;;;;;;5050529;28;20401;-82
2023/02/13 14:28:02;;;;;;;60.85;40.40;;;;;;;;;;5051028;28;20378;-83
2023/02/13 14:30:33;;;;;;;54.67;38.67;;;;;;;;;;5052265;28;20497;-84
2023/02/13 14:33:21;;;;;;;61.67;39.35;;;;;;;;;;5054241;28;20405;-83
2023/02/13 14:35:57;;;;;;;57.47;40.10;;;;;;;;;;5053759;28;20421;-83
2023/02/13 14:38:24;;;;;;;56.38;39.60;;;;;;;;;;5053893;28;20428;-83
2023/02/13 14:40:51;;;;;;;60.47;40.90;;;;;;;;;;5053619;28;20374;-82
2023/02/13 14:43:36;;;;;;;56.15;39.50;;;;;;;;;;5054023;28;20426;-83
2023/02/13 14:46:02;;;;;;;56.03;39.30;;;;;;;;;;5054080;28;20455;-82
2023/02/13 14:48:34;;;;;;;53.93;39.00;;;;;;;;;;5054017;28;20456;-82
2023/02/13 14:51:00;;;;;;;56.50;39.28;;;;;;;;;;5053893;28;20874;-83
2023/02/13 14:53:29;;;;;;;57.80;40.55;;;;;;;;;;5035992;28;20389;-82
2023/02/13 14:55:57;;;;;;;55.13;38.25;;;;;;;;;;5053364;28;20407;-83
2023/02/13 14:58:31;;;;;;;62.92;41.88;;;;;;;;;;5053265;28;20374;-83
2023/02/13 15:01:14;;;;;;;53.53;37.10;;;;;;;;;;5053151;28;20886;-82
2023/02/13 15:03:47;;;;;;;53.22;38.92;;;;;;;;;;5053432;28;20735;-82
2023/02/13 15:06:19;;;;;;;55.40;38.10;;;;;;;;;;5053710;28;20373;-82
2023/02/13 15:08:48;;;;;;;55.42;38.78;;;;;;;;;;5044736;28;20409;-82